Old Fields, West Virginia
Current Conditions -  °F | °C
As of 8:35 AM on Thursday 23 Oct 2014 (Local Time) from KW99 Reporting Station
Overcast Overcast  
Wind Chill: 50°   Ceiling: 3300
Heat Index: 50°   Visibility: 10mi
Dew Point: 39°   Wind: 3mph
Humidity: 66%   Direction: 330°NNW
Pressure: 30.07"   Gusts: NA
Location:  39.14°N, 78.95°W
Report Text: KW99 231235Z AUTO 33003KT 10SM BKN033 OVC038 10/04 A3007 RMK AO2 T01010041
Loading
Personal Weather Stations






























Interactive Weather Map New forecast layout! Learn more

10-Day Weather Forecast

Advertisements
Track Severe Weather on mobile